Time;durP1;ratioP1;P1;durP2;ratioP2;P2;SDS_P1;SDS_P2;PMS_P1;PMS_P2;Temp;Humidity;BMP_temperature;BMP_pressure;BME280_temperature;BME280_humidity;BME280_pressure;Samples;Min_cycle;Max_cycle;Signal;HPM_P1;HPM_P2
2023/02/17 00:01:22;;;;;;;;;;;;;;;16.47;65.50;101711.22;7414977;19;1795;-80
2023/02/17 00:03:50;;;;;;;;;;;;;;;16.43;65.48;101699.91;7415061;19;1336;-81
2023/02/17 00:06:19;;;;;;;;;;;;;;;16.38;65.64;101711.81;7409341;19;1809;-80
2023/02/17 00:08:48;;;;;;;;;;;;;;;16.58;65.20;101698.06;7415366;19;1038;-80
2023/02/17 00:11:16;;;;;;;;;;;;;;;17.27;63.49;101699.00;7413304;19;1705;-80
2023/02/17 00:13:45;;;;;;;;;;;;;;;17.80;62.16;101708.84;7412166;19;1822;-81
2023/02/17 00:16:14;;;;;;;;;;;;;;;18.25;60.74;101688.78;7410156;19;1744;-80
2023/02/17 00:18:45;;;;;;;;;;;;;;;18.28;60.40;101695.72;7409839;19;1755;-80
2023/02/17 00:21:15;;;;;;;;;;;;;;;18.48;59.86;101684.47;7411844;19;1724;-81
2023/02/17 00:23:43;;;;;;;;;;;;;;;18.57;59.71;101687.47;7413248;19;1685;-81
2023/02/17 00:26:12;;;;;;;;;;;;;;;18.57;59.97;101672.25;7413299;19;1723;-81
2023/02/17 00:28:41;;;;;;;;;;;;;;;18.62;59.90;101669.22;7412701;19;1478;-81
2023/02/17 00:31:10;;;;;;;;;;;;;;;18.68;59.90;101674.13;7414873;19;1455;-81
2023/02/17 00:33:39;;;;;;;;;;;;;;;18.69;59.19;101652.59;7411980;19;1854;-81
2023/02/17 00:36:12;;;;;;;;;;;;;;;18.70;59.28;101666.84;7410499;19;1925;-80
2023/02/17 00:38:41;;;;;;;;;;;;;;;18.78;59.45;101652.88;7414980;19;1079;-81
2023/02/17 00:41:10;;;;;;;;;;;;;;;18.80;59.10;101667.06;7412824;19;1969;-81
2023/02/17 00:43:38;;;;;;;;;;;;;;;18.82;58.87;101649.91;7412014;19;1740;-80
2023/02/17 00:46:07;;;;;;;;;;;;;;;18.84;59.18;101653.34;7412021;19;1831;-81
2023/02/17 00:48:38;;;;;;;;;;;;;;;18.84;59.30;101657.81;7412369;19;1725;-81
2023/02/17 00:51:06;;;;;;;;;;;;;;;18.65;59.58;101643.06;7410813;19;1818;-81
2023/02/17 00:53:37;;;;;;;;;;;;;;;18.44;59.80;101644.63;7409149;19;1855;-81
2023/02/17 00:56:07;;;;;;;;;;;;;;;18.32;60.31;101642.81;7410243;19;1822;-80
2023/02/17 00:58:35;;;;;;;;;;;;;;;18.36;60.53;101647.84;7411726;19;1507;-81
2023/02/17 01:01:03;;;;;;;;;;;;;;;18.34;60.40;101627.50;7412712;19;1731;-81
2023/02/17 01:03:32;;;;;;;;;;;;;;;18.34;60.40;101638.22;7412241;19;2059;-81
2023/02/17 01:06:01;;;;;;;;;;;;;;;18.36;60.13;101622.88;7412109;19;1792;-80
2023/02/17 01:08:29;;;;;;;;;;;;;;;18.32;60.44;101634.78;7412439;19;1423;-81
2023/02/17 01:11:01;;;;;;;;;;;;;;;18.26;60.54;101622.69;7410649;19;1778;-81
2023/02/17 01:13:30;;;;;;;;;;;;;;;18.29;60.43;101631.38;7409710;19;1850;-81
2023/02/17 01:15:58;;;;;;;;;;;;;;;18.35;60.48;101630.06;7410197;19;1723;-81
2023/02/17 01:18:26;;;;;;;;;;;;;;;18.34;60.53;101622.16;7408455;19;1408;-81
2023/02/17 01:20:55;;;;;;;;;;;;;;;18.35;60.43;101610.47;7410846;19;1735;-80
2023/02/17 01:23:24;;;;;;;;;;;;;;;18.39;60.31;101620.84;7409607;19;1744;-81
2023/02/17 01:25:52;;;;;;;;;;;;;;;18.37;60.03;101613.91;7412231;19;1831;-81
2023/02/17 01:28:23;;;;;;;;;;;;;;;18.37;60.28;101605.88;7412521;19;1479;-80
2023/02/17 01:30:51;;;;;;;;;;;;;;;18.38;60.07;101612.94;7412758;19;1995;-80
2023/02/17 01:33:20;;;;;;;;;;;;;;;18.37;60.17;101608.56;7410230;19;1926;-80
2023/02/17 01:35:48;;;;;;;;;;;;;;;18.40;59.84;101608.31;7411405;19;1666;-81
2023/02/17 01:38:16;;;;;;;;;;;;;;;18.43;60.26;101608.09;7411108;19;1806;-81
2023/02/17 01:40:48;;;;;;;;;;;;;;;18.40;59.99;101589.56;7410604;19;1756;-81
2023/02/17 01:43:18;;;;;;;;;;;;;;;18.42;59.57;101587.63;7409980;19;1585;-81
2023/02/17 01:45:52;;;;;;;;;;;;;;;18.36;60.03;101582.72;7411974;19;1796;-81
2023/02/17 01:48:21;;;;;;;;;;;;;;;18.34;59.83;101595.38;7410860;19;1499;-81
2023/02/17 01:50:52;;;;;;;;;;;;;;;18.35;59.81;101581.03;7409219;19;1745;-81
2023/02/17 01:53:23;;;;;;;;;;;;;;;18.29;60.02;101587.69;7409956;19;1853;-82
2023/02/17 01:55:53;;;;;;;;;;;;;;;18.39;59.70;101603.94;7409526;19;1818;-81
2023/02/17 01:58:22;;;;;;;;;;;;;;;18.39;59.85;101591.41;7411237;19;1956;-81
2023/02/17 02:00:55;;;;;;;;;;;;;;;18.35;59.97;101586.38;7409843;19;1870;-82
2023/02/17 02:03:24;;;;;;;;;;;;;;;18.38;59.98;101581.66;7410010;19;1839;-81
2023/02/17 02:05:52;;;;;;;;;;;;;;;18.42;59.52;101582.28;7411064;19;1492;-82
2023/02/17 02:08:21;;;;;;;;;;;;;;;18.43;59.41;101574.13;7417326;19;1818;-82
2023/02/17 02:10:49;;;;;;;;;;;;;;;18.39;59.65;101572.66;7411547;19;1576;-82
2023/02/17 02:13:18;;;;;;;;;;;;;;;18.39;59.69;101578.00;7413502;19;1727;-81
2023/02/17 02:15:49;;;;;;;;;;;;;;;18.35;59.94;101573.00;7409848;19;1810;-82
2023/02/17 02:18:33;;;;;;;;;;;;;;;18.37;59.61;101574.59;7410023;19;1665;-81
2023/02/17 02:21:16;;;;;;;;;;;;;;;18.40;59.54;101565.47;7409460;19;1494;-81
2023/02/17 02:23:57;;;;;;;;;;;;;;;18.42;59.66;101555.50;7410839;19;1759;-81
2023/02/17 02:26:41;;;;;;;;;;;;;;;18.38;59.41;101570.97;7410543;19;1546;-81
2023/02/17 02:29:24;;;;;;;;;;;;;;;18.39;59.50;101571.81;7408158;19;1482;-81
2023/02/17 02:32:00;;;;;;;;;;;;;;;18.44;59.33;101562.47;7407786;19;1801;-81
2023/02/17 02:34:34;;;;;;;;;;;;;;;18.38;59.27;101570.09;7412083;19;1816;-82
2023/02/17 02:37:04;;;;;;;;;;;;;;;18.41;59.69;101572.56;7413879;19;1899;-82
2023/02/17 02:39:36;;;;;;;;;;;;;;;18.43;59.56;101563.44;7411862;19;1799;-81
2023/02/17 02:42:07;;;;;;;;;;;;;;;18.43;59.23;101562.56;7412072;19;1727;-82
2023/02/17 02:44:35;;;;;;;;;;;;;;;18.43;59.19;101551.88;7411488;19;1696;-81
2023/02/17 02:47:05;;;;;;;;;;;;;;;18.46;59.42;101552.50;7412837;19;976;-82
2023/02/17 02:49:37;;;;;;;;;;;;;;;18.83;58.19;101538.22;7409579;19;1518;-81
2023/02/17 02:52:10;;;;;;;;;;;;;;;19.33;57.12;101551.41;7407408;19;1945;-81
2023/02/17 02:54:44;;;;;;;;;;;;;;;19.52;56.60;101550.81;7407415;19;1886;-81
2023/02/17 02:57:21;;;;;;;;;;;;;;;19.68;56.48;101529.88;7408705;19;1852;-81
2023/02/17 02:59:54;;;;;;;;;;;;;;;19.74;56.19;101534.78;7408825;19;1937;-81
2023/02/17 03:02:28;;;;;;;;;;;;;;;19.83;55.99;101547.47;7406509;19;1585;-81
2023/02/17 03:05:06;;;;;;;;;;;;;;;19.74;56.34;101561.63;7408387;19;1752;-81
2023/02/17 03:07:36;;;;;;;;;;;;;;;18.95;58.18;101545.31;7407687;19;1949;-81
2023/02/17 03:10:05;;;;;;;;;;;;;;;18.21;59.45;101542.72;7407764;19;1701;-81
2023/02/17 03:12:33;;;;;;;;;;;;;;;17.78;60.69;101561.81;7407801;19;1810;-81
2023/02/17 03:15:04;;;;;;;;;;;;;;;17.78;60.82;101555.59;7408797;19;1811;-81
2023/02/17 03:17:34;;;;;;;;;;;;;;;18.64;58.84;101557.44;7416059;19;1504;-81
2023/02/17 03:20:07;;;;;;;;;;;;;;;19.39;56.90;101546.41;7414938;19;1412;-81
2023/02/17 03:22:39;;;;;;;;;;;;;;;19.78;56.15;101540.78;7416765;19;1736;-81
2023/02/17 03:25:08;;;;;;;;;;;;;;;19.82;55.66;101561.88;7416685;19;2106;-81
2023/02/17 03:27:36;;;;;;;;;;;;;;;19.96;55.66;101555.41;7414549;19;1550;-81
2023/02/17 03:30:05;;;;;;;;;;;;;;;20.01;55.24;101541.59;7414651;19;1773;-81
2023/02/17 03:32:33;;;;;;;;;;;;;;;20.05;55.08;101580.66;7415002;19;1736;-81
2023/02/17 03:35:02;;;;;;;;;;;;;;;20.20;54.86;101563.31;7413023;19;1843;-81
2023/02/17 03:37:33;;;;;;;;;;;;;;;20.18;55.03;101559.91;7414825;19;1608;-81
2023/02/17 03:40:01;;;;;;;;;;;;;;;20.19;55.00;101564.31;7411401;19;1874;-81
2023/02/17 03:42:30;;;;;;;;;;;;;;;20.22;54.86;101565.88;7414629;19;1713;-81
2023/02/17 03:44:58;;;;;;;;;;;;;;;20.21;54.80;101575.78;7414481;19;1826;-81
2023/02/17 03:47:27;;;;;;;;;;;;;;;20.23;54.86;101560.41;7411838;19;1747;-81
2023/02/17 03:49:55;;;;;;;;;;;;;;;20.31;54.74;101575.00;7411407;19;1808;-81
2023/02/17 03:52:23;;;;;;;;;;;;;;;20.16;55.17;101569.91;7415726;19;1755;-81
2023/02/17 03:54:54;;;;;;;;;;;;;;;20.04;55.56;101554.78;7412786;19;1965;-81
2023/02/17 03:57:22;;;;;;;;;;;;;;;20.12;55.31;101571.13;7414687;19;1909;-81
2023/02/17 03:59:50;;;;;;;;;;;;;;;19.91;55.55;101564.78;7411701;19;1740;-81
2023/02/17 04:02:19;;;;;;;;;;;;;;;19.07;58.16;101560.47;7411016;19;1531;-81
2023/02/17 04:04:47;;;;;;;;;;;;;;;18.46;59.58;101573.06;7413875;19;1389;-81
2023/02/17 04:07:16;;;;;;;;;;;;;;;18.02;60.68;101567.25;7411816;19;1886;-81
2023/02/17 04:09:44;;;;;;;;;;;;;;;17.87;61.03;101560.34;7414351;19;1764;-81
2023/02/17 04:12:16;;;;;;;;;;;;;;;18.53;59.35;101550.22;7411179;19;1767;-81
2023/02/17 04:14:45;;;;;;;;;;;;;;;18.91;57.77;101557.25;7413051;19;1809;-81
2023/02/17 04:17:14;;;;;;;;;;;;;;;19.06;57.66;101557.94;7413773;19;1708;-81
2023/02/17 04:19:42;;;;;;;;;;;;;;;19.13;57.06;101556.47;7413447;19;1875;-81
2023/02/17 04:22:10;;;;;;;;;;;;;;;19.21;56.95;101562.09;7413646;19;1838;-81
2023/02/17 04:24:38;;;;;;;;;;;;;;;19.17;57.19;101554.41;7411445;19;1698;-81
2023/02/17 04:27:07;;;;;;;;;;;;;;;19.10;57.32;101537.97;7410782;19;1806;-81
2023/02/17 04:29:39;;;;;;;;;;;;;;;19.01;57.47;101549.38;7412694;19;1693;-81
2023/02/17 04:32:08;;;;;;;;;;;;;;;18.92;57.61;101542.00;7409519;19;1486;-81
2023/02/17 04:34:36;;;;;;;;;;;;;;;18.93;57.88;101555.31;7412604;19;1843;-81
2023/02/17 04:37:04;;;;;;;;;;;;;;;18.87;57.94;101553.94;7412062;19;1925;-81
2023/02/17 04:39:33;;;;;;;;;;;;;;;18.83;57.95;101568.53;7412567;19;1753;-81
2023/02/17 04:42:01;;;;;;;;;;;;;;;18.81;57.99;101561.59;7412357;19;1827;-81
2023/02/17 04:44:29;;;;;;;;;;;;;;;18.83;57.91;101567.69;7411328;19;1823;-81
2023/02/17 04:47:00;;;;;;;;;;;;;;;18.85;57.52;101563.91;7413843;19;1692;-81
2023/02/17 04:49:28;;;;;;;;;;;;;;;18.86;57.37;101568.31;7412870;19;1891;-81
2023/02/17 04:51:57;;;;;;;;;;;;;;;18.83;57.97;101575.72;7412467;19;1435;-81
2023/02/17 04:54:25;;;;;;;;;;;;;;;18.76;58.04;101566.41;7412663;19;1843;-81
2023/02/17 04:56:54;;;;;;;;;;;;;;;18.80;57.95;101565.22;7410938;19;1491;-81
2023/02/17 04:59:22;;;;;;;;;;;;;;;18.79;57.52;101572.41;7410533;19;1432;-81
2023/02/17 05:01:51;;;;;;;;;;;;;;;18.82;57.71;101576.69;7411825;19;1740;-81
2023/02/17 05:04:22;;;;;;;;;;;;;;;18.82;57.55;101571.31;7408819;19;1500;-82
2023/02/17 05:06:50;;;;;;;;;;;;;;;18.82;57.78;101558.81;7409573;19;1994;-81
2023/02/17 05:09:18;;;;;;;;;;;;;;;18.88;57.82;101593.19;7410270;19;1455;-81
2023/02/17 05:11:47;;;;;;;;;;;;;;;18.84;57.81;101578.31;7410989;19;1810;-81
2023/02/17 05:14:15;;;;;;;;;;;;;;;18.83;57.62;101576.56;7408617;19;1884;-81
2023/02/17 05:16:44;;;;;;;;;;;;;;;18.84;57.69;101575.63;7407132;19;1807;-81
2023/02/17 05:19:12;;;;;;;;;;;;;;;18.86;57.54;101580.84;7407294;19;1515;-82
2023/02/17 05:21:44;;;;;;;;;;;;;;;18.83;57.51;101581.09;7409843;19;1628;-82
2023/02/17 05:24:12;;;;;;;;;;;;;;;18.87;57.42;101582.56;7411346;19;1491;-82
2023/02/17 05:26:41;;;;;;;;;;;;;;;18.89;57.39;101591.34;7407724;19;1553;-82
2023/02/17 05:29:09;;;;;;;;;;;;;;;18.95;57.18;101585.53;7410254;19;1422;-81
2023/02/17 05:31:38;;;;;;;;;;;;;;;18.87;56.93;101601.34;7410293;19;1478;-82
2023/02/17 05:34:06;;;;;;;;;;;;;;;18.90;57.08;101603.78;7408511;19;1102;-82
2023/02/17 05:36:35;;;;;;;;;;;;;;;18.92;57.43;101599.19;7406440;19;1973;-82
2023/02/17 05:39:07;;;;;;;;;;;;;;;19.03;57.53;101588.47;7409738;19;1753;-81
2023/02/17 05:41:36;;;;;;;;;;;;;;;19.06;57.59;101600.81;7411797;19;1887;-81
2023/02/17 05:44:04;;;;;;;;;;;;;;;19.05;57.54;101616.03;7410689;19;1846;-82
2023/02/17 05:46:33;;;;;;;;;;;;;;;19.08;57.97;101599.72;7407564;19;1765;-83
2023/02/17 05:49:01;;;;;;;;;;;;;;;19.12;58.32;101599.47;7410127;19;1736;-83
2023/02/17 05:51:29;;;;;;;;;;;;;;;19.13;57.91;101617.28;7406961;19;1630;-83
2023/02/17 05:53:57;;;;;;;;;;;;;;;19.13;57.48;101625.34;7408036;19;1442;-84
2023/02/17 05:56:29;;;;;;;;;;;;;;;19.23;57.72;101615.63;7406796;19;1830;-82
2023/02/17 05:58:59;;;;;;;;;;;;;;;19.37;57.35;101607.38;7404991;19;1475;-83
2023/02/17 06:01:27;;;;;;;;;;;;;;;19.35;57.42;101605.78;7406874;19;1553;-81
2023/02/17 06:03:55;;;;;;;;;;;;;;;19.47;57.14;101608.38;7408995;19;1597;-80
2023/02/17 06:06:24;;;;;;;;;;;;;;;19.54;57.08;101624.03;7403379;19;1656;-81
2023/02/17 06:08:53;;;;;;;;;;;;;;;19.50;58.54;101622.50;7408234;19;1475;-80
2023/02/17 06:11:21;;;;;;;;;;;;;;;19.37;59.41;101617.25;7401766;19;1593;-85
2023/02/17 06:13:53;;;;;;;;;;;;;;;19.67;58.67;101632.81;7408614;19;1626;-83
2023/02/17 06:16:21;;;;;;;;;;;;;;;20.12;58.11;101607.88;7403213;19;1883;-81
2023/02/17 06:18:50;;;;;;;;;;;;;;;20.26;58.03;101616.53;7408742;19;1419;-80
2023/02/17 06:21:19;;;;;;;;;;;;;;;20.11;58.87;101628.50;7404206;19;1747;-80
2023/02/17 06:23:48;;;;;;;;;;;;;;;20.00;59.19;101623.13;7408265;19;1415;-80
2023/02/17 06:26:17;;;;;;;;;;;;;;;19.99;59.79;101640.22;7407906;19;1637;-81
2023/02/17 06:28:45;;;;;;;;;;;;;;;19.94;60.39;101642.41;7408549;19;1410;-80
2023/02/17 06:31:16;;;;;;;;;;;;;;;19.94;60.44;101647.78;7410217;19;1415;-80
2023/02/17 06:33:45;;;;;;;;;;;;;;;19.91;60.73;101650.69;7412466;19;1317;-82
2023/02/17 06:36:13;;;;;;;;;;;;;;;19.95;60.68;101649.47;7405828;19;1857;-80
2023/02/17 06:38:42;;;;;;;;;;;;;;;19.99;60.34;101640.22;7406604;19;1404;-81
2023/02/17 06:41:10;;;;;;;;;;;;;;;19.76;60.00;101652.75;7404257;19;1459;-82
2023/02/17 06:43:39;;;;;;;;;;;;;;;19.68;59.83;101662.22;6379083;19;10000653;-82
2023/02/17 06:46:07;;;;;;;;;;;;;;;19.68;59.71;101650.63;7392174;19;1442;-82
2023/02/17 06:48:38;;;;;;;;;;;;;;;19.64;60.11;101655.38;7390851;19;1489;-81
2023/02/17 06:51:09;;;;;;;;;;;;;;;19.65;59.93;101656.22;7403122;19;1025;-80
2023/02/17 06:53:38;;;;;;;;;;;;;;;19.70;59.62;101651.38;7405356;19;1375;-80
2023/02/17 06:56:06;;;;;;;;;;;;;;;19.74;59.84;101668.97;7404063;19;1836;-81
2023/02/17 06:58:35;;;;;;;;;;;;;;;19.75;60.10;101649.19;7411337;19;1867;-79
2023/02/17 07:01:03;;;;;;;;;;;;;;;19.83;59.50;101654.81;7409280;19;1453;-80
2023/02/17 07:03:34;;;;;;;;;;;;;;;19.71;59.08;101650.41;7407851;19;1901;-80
2023/02/17 07:06:05;;;;;;;;;;;;;;;19.62;58.43;101670.75;7412659;19;1520;-80
2023/02/17 07:08:34;;;;;;;;;;;;;;;19.69;58.60;101673.78;7412436;19;1604;-80
2023/02/17 07:11:06;;;;;;;;;;;;;;;19.77;58.25;101674.09;7411234;19;1488;-80
2023/02/17 07:13:34;;;;;;;;;;;;;;;19.83;58.10;101678.97;7411111;19;1838;-79
2023/02/17 07:16:02;;;;;;;;;;;;;;;19.89;58.15;101669.59;7409842;19;1868;-80
2023/02/17 07:18:31;;;;;;;;;;;;;;;19.83;58.17;101657.50;7414615;19;1545;-80
2023/02/17 07:20:59;;;;;;;;;;;;;;;19.84;58.44;101663.75;7413213;19;1543;-80
2023/02/17 07:23:30;;;;;;;;;;;;;;;19.87;57.93;101652.75;7414669;19;1415;-80
2023/02/17 07:26:02;;;;;;;;;;;;;;;19.56;59.53;101670.38;7413569;19;1800;-80
2023/02/17 07:28:31;;;;;;;;;;;;;;;19.03;60.95;101674.25;7415974;19;1487;-80
2023/02/17 07:30:59;;;;;;;;;;;;;;;18.67;62.15;101678.63;7414821;19;1332;-80
2023/02/17 07:33:29;;;;;;;;;;;;;;;18.34;62.00;101675.69;7412912;19;1475;-80
2023/02/17 07:35:57;;;;;;;;;;;;;;;17.98;61.73;101686.19;7414301;19;1844;-80
2023/02/17 07:38:25;;;;;;;;;;;;;;;17.74;59.96;101678.00;7415369;19;1471;-80
2023/02/17 07:40:56;;;;;;;;;;;;;;;17.66;59.48;101693.72;7415538;19;1688;-80
2023/02/17 07:43:24;;;;;;;;;;;;;;;17.63;58.85;101680.59;7414963;19;1606;-80
2023/02/17 07:45:55;;;;;;;;;;;;;;;17.50;59.20;101697.44;7415934;19;1747;-80
2023/02/17 07:48:23;;;;;;;;;;;;;;;17.48;58.60;101691.34;7412092;19;1562;-80
2023/02/17 07:50:52;;;;;;;;;;;;;;;17.06;53.37;101708.41;7412319;19;1458;-80
2023/02/17 07:53:20;;;;;;;;;;;;;;;16.93;55.64;101711.03;7415696;19;1780;-80
2023/02/17 07:55:48;;;;;;;;;;;;;;;17.07;56.45;101694.94;7413431;19;1833;-80
2023/02/17 07:58:20;;;;;;;;;;;;;;;17.14;57.23;101707.91;7415414;19;1851;-80
2023/02/17 08:00:49;;;;;;;;;;;;;;;17.20;56.90;101704.84;7414357;19;1822;-80
2023/02/17 08:03:18;;;;;;;;;;;;;;;17.27;56.93;101692.78;7416795;19;1724;-80
2023/02/17 08:05:49;;;;;;;;;;;;;;;17.30;56.89;101679.22;7412034;19;1621;-80
2023/02/17 08:13:46;;;;;;;;;;;;;;;17.29;56.82;101709.59;7414101;19;1787;-80
2023/02/17 08:16:14;;;;;;;;;;;;;;;17.24;56.14;101695.66;7414294;19;1811;-80
2023/02/17 08:18:42;;;;;;;;;;;;;;;17.26;55.98;101709.78;7412321;19;1814;-81
2023/02/17 08:21:11;;;;;;;;;;;;;;;17.23;55.91;101692.13;7412069;19;1743;-80
2023/02/17 08:23:39;;;;;;;;;;;;;;;17.24;55.22;101695.66;7411894;19;1991;-80
2023/02/17 08:26:07;;;;;;;;;;;;;;;17.23;55.41;101715.31;7413572;19;1430;-80
2023/02/17 08:28:36;;;;;;;;;;;;;;;17.20;56.02;101702.16;7414339;19;1456;-80
2023/02/17 08:31:08;;;;;;;;;;;;;;;17.18;56.26;101720.13;7411279;19;1503;-80
2023/02/17 08:33:36;;;;;;;;;;;;;;;17.15;56.37;101718.50;7411540;19;1937;-81
2023/02/17 08:36:07;;;;;;;;;;;;;;;17.10;56.04;101705.44;7410538;19;1859;-80
2023/02/17 08:38:35;;;;;;;;;;;;;;;17.06;55.62;101697.72;7412444;19;1744;-80
2023/02/17 08:41:04;;;;;;;;;;;;;;;17.04;55.92;101699.63;7414534;19;1737;-80
2023/02/17 08:43:32;;;;;;;;;;;;;;;17.02;55.38;101718.44;7413451;19;1986;-80
2023/02/17 08:46:01;;;;;;;;;;;;;;;17.00;55.25;101698.97;7414476;19;1736;-80
2023/02/17 08:48:32;;;;;;;;;;;;;;;17.04;55.23;101703.16;7413766;19;1839;-80
2023/02/17 08:51:00;;;;;;;;;;;;;;;17.00;54.46;101711.47;7412484;19;1529;-80
2023/02/17 08:53:28;;;;;;;;;;;;;;;16.99;55.93;101710.63;7409743;19;1930;-80
2023/02/17 08:55:57;;;;;;;;;;;;;;;16.99;54.71;101713.31;7412925;19;1835;-80
2023/02/17 08:58:25;;;;;;;;;;;;;;;16.92;55.50;101728.00;7414049;19;1431;-80
2023/02/17 09:00:53;;;;;;;;;;;;;;;16.96;55.07;101717.97;7413766;19;1864;-80
2023/02/17 09:03:22;;;;;;;;;;;;;;;17.08;55.09;101712.69;7411193;19;1518;-80
2023/02/17 09:05:54;;;;;;;;;;;;;;;17.13;54.42;101722.22;7412901;19;1563;-80
2023/02/17 09:08:23;;;;;;;;;;;;;;;17.22;54.43;101708.25;7411567;19;1482;-81
2023/02/17 09:10:51;;;;;;;;;;;;;;;17.31;55.15;101718.38;7412851;19;1680;-81
2023/02/17 09:13:21;;;;;;;;;;;;;;;17.28;55.46;101716.72;7411167;19;2050;-80
2023/02/17 09:15:52;;;;;;;;;;;;;;;17.30;55.94;101725.50;7412668;19;1828;-79
2023/02/17 09:18:20;;;;;;;;;;;;;;;17.28;55.73;101707.84;7412948;19;1954;-78
2023/02/17 09:20:50;;;;;;;;;;;;;;;17.30;55.84;101692.56;7411819;19;1528;-80
2023/02/17 09:23:21;;;;;;;;;;;;;;;17.32;56.22;101700.50;7410662;19;1864;-80
2023/02/17 09:25:49;;;;;;;;;;;;;;;17.29;56.60;101720.28;7410715;19;1458;-80
2023/02/17 09:28:17;;;;;;;;;;;;;;;17.28;58.10;101713.19;7410218;19;1628;-80
2023/02/17 09:30:48;;;;;;;;;;;;;;;17.23;58.19;101700.16;7412697;19;1200;-80
2023/02/17 09:33:17;;;;;;;;;;;;;;;17.23;58.23;101708.16;7410680;19;1895;-78
2023/02/17 09:35:45;;;;;;;;;;;;;;;17.26;58.82;101715.13;7409069;19;1565;-79
2023/02/17 09:38:13;;;;;;;;;;;;;;;17.22;61.31;101713.63;7408111;19;1856;-79
2023/02/17 09:40:47;;;;;;;;;;;;;;;17.22;60.71;101714.47;7402269;19;1514;-82
2023/02/17 09:43:17;;;;;;;;;;;;;;;17.29;61.58;101714.94;7406163;19;1621;-80
2023/02/17 09:45:49;;;;;;;;;;;;;;;17.27;63.67;101700.81;7411940;19;1344;-80
2023/02/17 09:48:20;;;;;;;;;;;;;;;17.27;63.34;101693.66;7411569;19;1555;-80
2023/02/17 09:50:52;;;;;;;;;;;;;;;17.30;61.45;101668.50;7409238;19;1542;-80
2023/02/17 09:53:26;;;;;;;;;;;;;;;17.34;61.54;101678.03;7412484;19;1606;-81
2023/02/17 09:55:59;;;;;;;;;;;;;;;17.38;63.31;101682.22;7410938;19;1648;-79
2023/02/17 09:58:30;;;;;;;;;;;;;;;17.40;63.37;101676.78;7411036;19;1557;-80
2023/02/17 10:01:01;;;;;;;;;;;;;;;17.41;62.33;101659.78;7409065;19;1590;-80
2023/02/17 10:03:32;;;;;;;;;;;;;;;17.46;61.94;101663.84;7412582;19;1135;-83
2023/02/17 10:06:06;;;;;;;;;;;;;;;17.52;62.13;101669.75;7409317;19;1575;-80
2023/02/17 10:08:37;;;;;;;;;;;;;;;17.48;62.24;101667.28;7411583;19;1542;-80
2023/02/17 10:11:13;;;;;;;;;;;;;;;17.52;61.96;101661.72;7410133;19;1425;-81
2023/02/17 10:13:45;;;;;;;;;;;;;;;17.50;62.36;101670.69;7411169;19;1756;-83
2023/02/17 10:16:17;;;;;;;;;;;;;;;17.51;62.10;101666.22;7407766;19;1845;-79
2023/02/17 10:18:48;;;;;;;;;;;;;;;17.50;62.02;101660.00;7411299;19;1554;-79
2023/02/17 10:21:22;;;;;;;;;;;;;;;17.44;61.65;101651.53;7407776;19;1506;-80
2023/02/17 10:23:51;;;;;;;;;;;;;;;17.41;61.80;101644.59;7410702;19;1334;-79
2023/02/17 10:26:27;;;;;;;;;;;;;;;17.38;61.98;101634.09;7416468;19;1240;-79
2023/02/17 10:28:59;;;;;;;;;;;;;;;17.37;61.82;101648.44;7419193;19;1890;-80
2023/02/17 10:31:33;;;;;;;;;;;;;;;17.38;61.67;101651.97;7415580;19;1898;-79
2023/02/17 10:34:04;;;;;;;;;;;;;;;17.34;61.88;101637.09;7418317;19;1879;-79
2023/02/17 10:36:40;;;;;;;;;;;;;;;17.37;62.01;101642.22;7412581;19;1839;-79
2023/02/17 10:39:13;;;;;;;;;;;;;;;17.48;61.46;101643.19;7416790;19;1772;-79
2023/02/17 10:41:48;;;;;;;;;;;;;;;18.32;59.20;101618.72;7414939;19;1470;-79
2023/02/17 10:44:18;;;;;;;;;;;;;;;19.32;56.74;101620.28;7416823;19;1719;-79
2023/02/17 10:46:47;;;;;;;;;;;;;;;20.19;54.73;101620.72;7416782;19;1163;-79
2023/02/17 10:49:18;;;;;;;;;;;;;;;20.33;56.53;101610.66;7414804;19;1875;-79
2023/02/17 10:51:46;;;;;;;;;;;;;;;19.86;58.87;101611.66;7416494;19;1690;-79
2023/02/17 10:54:21;;;;;;;;;;;;;;;19.21;60.91;101628.28;7418157;19;1533;-79
2023/02/17 10:56:55;;;;;;;;;;;;;;;19.35;60.63;101619.19;7412570;19;1818;-79
2023/02/17 10:59:26;;;;;;;;;;;;;;;19.73;59.40;101613.56;7417402;19;1626;-80
2023/02/17 11:01:58;;;;;;;;;;;;;;;19.88;58.42;101621.44;7414774;19;1786;-79
2023/02/17 11:04:26;;;;;;;;;;;;;;;20.04;57.75;101611.19;7415384;19;1475;-79
2023/02/17 11:06:57;;;;;;;;;;;;;;;20.16;57.21;101626.31;7416250;19;1581;-79
2023/02/17 11:09:28;;;;;;;;;;;;;;;20.14;57.23;101611.31;7416507;19;1541;-80
2023/02/17 11:12:04;;;;;;;;;;;;;;;20.13;57.65;101598.84;7413845;19;1799;-79
2023/02/17 11:14:34;;;;;;;;;;;;;;;20.04;57.55;101606.66;7414866;19;1349;-79
2023/02/17 11:17:04;;;;;;;;;;;;;;;19.97;57.91;101612.63;7415248;19;1957;-79
2023/02/17 11:19:34;;;;;;;;;;;;;;;19.89;58.35;101605.19;7414108;19;1664;-79
2023/02/17 11:22:03;;;;;;;;;;;;;;;19.92;58.33;101615.69;7415139;19;1803;-79
2023/02/17 11:24:33;;;;;;;;;;;;;;;19.88;58.09;101629.47;7411888;19;1636;-79
2023/02/17 11:27:04;;;;;;;;;;;;;;;19.61;58.57;101607.31;7411827;19;1673;-78
2023/02/17 11:29:33;;;;;;;;;;;;;;;19.80;58.14;101609.44;7415206;19;1645;-79
2023/02/17 11:32:03;;;;;;;;;;;;;;;20.06;57.78;101596.66;7413700;19;1743;-79
2023/02/17 11:34:33;;;;;;;;;;;;;;;20.21;57.48;101608.00;7415382;19;1217;-79
2023/02/17 11:37:03;;;;;;;;;;;;;;;20.22;57.20;101588.22;7412886;19;1969;-79
2023/02/17 11:39:31;;;;;;;;;;;;;;;20.38;57.03;101592.34;7414487;19;1586;-79
2023/02/17 11:41:59;;;;;;;;;;;;;;;20.48;58.17;101596.00;7412246;19;1815;-79
2023/02/17 11:44:31;;;;;;;;;;;;;;;20.62;57.14;101589.53;7414515;19;1534;-79
2023/02/17 11:47:07;;;;;;;;;;;;;;;20.70;56.78;101580.84;7415879;19;1269;-79
2023/02/17 11:49:45;;;;;;;;;;;;;;;20.46;57.91;101577.31;7414253;19;1902;-79
2023/02/17 11:52:19;;;;;;;;;;;;;;;20.28;58.10;101573.44;7412265;19;1858;-79
2023/02/17 11:54:53;;;;;;;;;;;;;;;20.14;58.57;101566.50;7414292;19;1895;-79
2023/02/17 11:57:32;;;;;;;;;;;;;;;20.11;58.66;101569.41;7413712;19;1963;-79
2023/02/17 12:00:12;;;;;;;;;;;;;;;20.10;58.67;101567.72;7413358;19;2029;-79
2023/02/17 12:02:46;;;;;;;;;;;;;;;20.13;58.36;101562.09;7411417;19;1958;-79
2023/02/17 12:05:22;;;;;;;;;;;;;;;20.19;58.23;101550.00;7414551;19;1017;-78
2023/02/17 12:08:06;;;;;;;;;;;;;;;20.14;58.31;101562.97;7414241;19;1147;-79
2023/02/17 12:10:44;;;;;;;;;;;;;;;20.11;58.38;101558.69;7413744;19;1572;-78
2023/02/17 12:13:23;;;;;;;;;;;;;;;20.13;58.27;101551.34;7413049;19;1734;-79
2023/02/17 12:16:03;;;;;;;;;;;;;;;20.18;58.24;101543.78;7411407;19;1391;-79
2023/02/17 12:18:39;;;;;;;;;;;;;;;20.19;57.89;101528.53;7413117;19;1833;-79
2023/02/17 12:21:09;;;;;;;;;;;;;;;20.19;58.02;101544.63;7414513;19;1043;-78
2023/02/17 12:23:50;;;;;;;;;;;;;;;20.27;57.48;101547.53;7414372;19;1895;-79
2023/02/17 12:26:23;;;;;;;;;;;;;;;20.22;57.75;101530.97;7413660;19;1998;-78
2023/02/17 12:28:59;;;;;;;;;;;;;;;20.23;57.92;101532.66;7413924;19;1977;-79
2023/02/17 12:31:40;;;;;;;;;;;;;;;20.21;57.83;101518.50;7413539;19;1950;-79
2023/02/17 12:34:14;;;;;;;;;;;;;;;20.22;58.03;101529.13;7410630;19;1914;-78
2023/02/17 12:36:43;;;;;;;;;;;;;;;20.12;58.04;101516.59;7410382;19;1498;-78
2023/02/17 12:39:16;;;;;;;;;;;;;;;20.09;58.17;101523.03;7409858;19;1902;-78
2023/02/17 12:41:47;;;;;;;;;;;;;;;20.04;57.98;101530.63;7410937;19;1601;-78
2023/02/17 12:44:20;;;;;;;;;;;;;;;20.00;58.43;101518.44;7411845;19;1654;-78
2023/02/17 12:46:54;;;;;;;;;;;;;;;19.95;58.37;101520.63;7409457;19;1409;-79
2023/02/17 12:49:26;;;;;;;;;;;;;;;19.93;58.61;101539.53;7411663;19;1961;-78
2023/02/17 12:51:58;;;;;;;;;;;;;;;19.90;58.21;101528.22;7409106;19;1395;-79
2023/02/17 12:54:29;;;;;;;;;;;;;;;19.93;58.30;101528.78;7412496;19;1716;-79
2023/02/17 12:57:04;;;;;;;;;;;;;;;20.05;58.10;101521.59;7412544;19;1848;-78
2023/02/17 12:59:34;;;;;;;;;;;;;;;20.20;57.48;101532.94;7408883;19;1545;-79
2023/02/17 13:02:07;;;;;;;;;;;;;;;20.14;57.98;101520.00;7407506;19;1672;-78
2023/02/17 13:04:36;;;;;;;;;;;;;;;20.14;57.70;101520.00;7408947;19;1494;-79
2023/02/17 13:07:09;;;;;;;;;;;;;;;20.02;57.73;101513.78;7410900;19;1894;-78